PWSweather.com
Personal Weather Stations
Station Observations
SEVANL01
SevillaES 41004

SevillaES 41004

Lat: 37.383633, Lon: -5.985787

Elevation: 19.685

Station Type: Davis Vantage Pro2

Latest ConditionsUpdated 10:20:00 PM GMT+01:01 Thursday, Oct 18, 2018
Currently Today's Max Today's Min Today's Average
Temperature 58.2°F14.6°C 65.0°F18.3°C 57.1°F13.9°C 60.5°F15.8°C
Dew Point 53.4°F11.9°C 60.4°F15.8°C 52.5°F11.4°C 55.7°F13.2°C
Winds 6.1 mph ENE9.8 kmh ENE 8.3 mph -13.4 kmh - - 3.9 mph 6.3 kmh
Wind Gusts 13.0 mph20.9 kmh 17.0 mph27.4 kmh - -
Humidity 84% 89% 77% 84%
Pressure 29.83 in1010.2 mb 29.85 in1010.8 mb 29.71 in1006.1 mb -
Precipitation - 0.46 in11.7 mm - -
Hour Temp Dew Point Humidity Winds Wind Gusts Pressure Precip Precip Rate Daily Precip Total
10:20 PM 58.2°F14.6°C 53.4°F11.9°C 84% 6.1 mph ENE9.8 kmh ENE 13.0 mph20.9 kmh 29.83 in1010.2 mb 0.00 in0.0 mm 0.00 in0.0 mm 0.46 in11.7 mm
10:00 PM 58.2°F14.6°C 53.4°F11.9°C 84% 5.5 mph NE8.9 kmh NE 12.0 mph19.3 kmh 29.82 in1009.8 mb 0.00 in0.0 mm 0.00 in0.0 mm 0.46 in11.7 mm
09:40 PM 58.4°F14.7°C 53.6°F12.0°C 84% 6.0 mph ENE9.7 kmh ENE 12.0 mph19.3 kmh 29.81 in1009.5 mb 0.00 in0.0 mm 0.00 in0.0 mm 0.46 in11.7 mm
09:20 PM 59.0°F15.0°C 54.2°F12.3°C 84% 5.6 mph ENE9.0 kmh ENE 11.0 mph17.7 kmh 29.81 in1009.5 mb 0.00 in0.0 mm 0.00 in0.0 mm 0.46 in11.7 mm
09:00 PM 59.4°F15.2°C 54.2°F12.3°C 83% 1.5 mph NE2.4 kmh NE 6.0 mph9.7 kmh 29.80 in1009.1 mb 0.00 in0.0 mm 0.00 in0.0 mm 0.46 in11.7 mm
08:40 PM 59.3°F15.2°C 54.1°F12.3°C 83% 3.4 mph ENE5.5 kmh ENE 10.0 mph16.1 kmh 29.79 in1008.8 mb 0.00 in0.0 mm 0.00 in0.0 mm 0.46 in11.7 mm
08:20 PM 59.1°F15.1°C 53.9°F12.2°C 83% 5.0 mph ENE8.0 kmh ENE 12.0 mph19.3 kmh 29.79 in1008.8 mb 0.00 in0.0 mm 0.00 in0.0 mm 0.46 in11.7 mm
08:00 PM 59.2°F15.1°C 53.7°F12.1°C 82% 4.0 mph ENE6.4 kmh ENE 9.0 mph14.5 kmh 29.79 in1008.8 mb 0.00 in0.0 mm 0.00 in0.0 mm 0.46 in11.7 mm
07:40 PM 59.2°F15.1°C 53.7°F12.1°C 82% 3.8 mph NE6.1 kmh NE 8.0 mph12.9 kmh 29.78 in1008.5 mb 0.00 in0.0 mm 0.00 in0.0 mm 0.46 in11.7 mm
07:20 PM 59.2°F15.1°C 53.4°F11.9°C 81% 5.8 mph ENE9.3 kmh ENE 12.0 mph19.3 kmh 29.78 in1008.5 mb 0.00 in0.0 mm 0.00 in0.0 mm 0.46 in11.7 mm
07:00 PM 59.3°F15.2°C 54.1°F12.3°C 83% 5.5 mph ENE8.9 kmh ENE 10.0 mph16.1 kmh 29.77 in1008.1 mb 0.00 in0.0 mm 0.00 in0.0 mm 0.46 in11.7 mm
06:40 PM 59.4°F15.2°C 54.2°F12.3°C 83% 4.7 mph NE7.6 kmh NE 11.0 mph17.7 kmh 29.76 in1007.8 mb 0.00 in0.0 mm 0.00 in0.0 mm 0.46 in11.7 mm
06:20 PM 59.6°F15.3°C 54.4°F12.4°C 83% 5.6 mph ENE9.0 kmh ENE 14.0 mph22.5 kmh 29.75 in1007.5 mb 0.00 in0.0 mm 0.00 in0.0 mm 0.46 in11.7 mm
06:00 PM 60.1°F15.6°C 54.6°F12.6°C 82% 5.9 mph ENE9.5 kmh ENE 11.0 mph17.7 kmh 29.75 in1007.5 mb 0.00 in0.0 mm 0.00 in0.0 mm 0.46 in11.7 mm
05:40 PM 60.4°F15.8°C 54.2°F12.3°C 80% 6.3 mph E10.1 kmh E 15.0 mph24.1 kmh 29.74 in1007.1 mb 0.00 in0.0 mm 0.00 in0.0 mm 0.46 in11.7 mm
05:20 PM 60.4°F15.8°C 54.2°F12.3°C 80% 7.1 mph ENE11.4 kmh ENE 15.0 mph24.1 kmh 29.75 in1007.5 mb 0.00 in0.0 mm 0.00 in0.0 mm 0.46 in11.7 mm
05:00 PM 60.7°F15.9°C 53.8°F12.1°C 78% 4.8 mph ENE7.7 kmh ENE 12.0 mph19.3 kmh 29.74 in1007.1 mb 0.00 in0.0 mm 0.00 in0.0 mm 0.46 in11.7 mm
04:40 PM 60.6°F15.9°C 53.7°F12.1°C 78% 5.6 mph ENE9.0 kmh ENE 13.0 mph20.9 kmh 29.74 in1007.1 mb 0.00 in0.0 mm 0.00 in0.0 mm 0.46 in11.7 mm
04:20 PM 60.4°F15.8°C 53.2°F11.8°C 77% 5.0 mph NE8.0 kmh NE 12.0 mph19.3 kmh 29.73 in1006.8 mb 0.00 in0.0 mm 0.00 in0.0 mm 0.46 in11.7 mm
04:00 PM 60.2°F15.7°C 53.3°F11.8°C 78% 5.3 mph ENE8.5 kmh ENE 13.0 mph20.9 kmh 29.73 in1006.8 mb 0.00 in0.0 mm 0.00 in0.0 mm 0.46 in11.7 mm
03:40 PM 59.9°F15.5°C 52.7°F11.5°C 77% 5.2 mph E8.4 kmh E 11.0 mph17.7 kmh 29.73 in1006.8 mb 0.00 in0.0 mm 0.00 in0.0 mm 0.46 in11.7 mm
03:20 PM 59.7°F15.4°C 52.5°F11.4°C 77% 4.2 mph E6.8 kmh E 10.0 mph16.1 kmh 29.72 in1006.4 mb 0.01 in0.3 mm 0.00 in0.0 mm 0.46 in11.7 mm
03:00 PM 59.4°F15.2°C 52.9°F11.6°C 79% 5.0 mph ENE8.0 kmh ENE 9.0 mph14.5 kmh 29.73 in1006.8 mb 0.01 in0.3 mm 0.00 in0.0 mm 0.46 in11.7 mm
02:40 PM 59.0°F15.0°C 52.5°F11.4°C 79% 5.8 mph ESE9.3 kmh ESE 10.0 mph16.1 kmh 29.73 in1006.8 mb 0.01 in0.3 mm 0.03 in0.8 mm 0.46 in11.7 mm
02:20 PM 58.9°F14.9°C 53.7°F12.1°C 83% 5.8 mph E9.3 kmh E 12.0 mph19.3 kmh 29.73 in1006.8 mb 0.00 in0.0 mm 0.00 in0.0 mm 0.46 in11.7 mm
02:00 PM 58.7°F14.8°C 53.9°F12.2°C 84% 4.8 mph E7.7 kmh E 11.0 mph17.7 kmh 29.73 in1006.8 mb 0.02 in0.5 mm 0.00 in0.0 mm 0.46 in11.7 mm
01:40 PM 58.2°F14.6°C 54.0°F12.2°C 86% 4.7 mph E7.6 kmh E 8.0 mph12.9 kmh 29.73 in1006.8 mb 0.04 in1.0 mm 0.00 in0.0 mm 0.46 in11.7 mm
01:20 PM 58.3°F14.6°C 54.8°F12.7°C 88% 3.3 mph SE5.3 kmh SE 10.0 mph16.1 kmh 29.74 in1007.1 mb 0.06 in1.5 mm 0.00 in0.0 mm 0.45 in11.4 mm
01:00 PM 58.4°F14.7°C 54.5°F12.5°C 87% 2.6 mph SE4.2 kmh SE 7.0 mph11.3 kmh 29.74 in1007.1 mb 0.06 in1.5 mm 0.02 in0.5 mm 0.43 in10.9 mm
12:40 PM 58.9°F14.9°C 54.7°F12.6°C 86% 4.0 mph SE6.4 kmh SE 9.0 mph14.5 kmh 29.75 in1007.5 mb 0.05 in1.3 mm 0.06 in1.5 mm 0.41 in10.4 mm
12:20 PM 59.3°F15.2°C 54.5°F12.5°C 84% 3.0 mph E4.8 kmh E 8.0 mph12.9 kmh 29.74 in1007.1 mb 0.03 in0.8 mm 0.03 in0.8 mm 0.39 in9.9 mm
12:00 PM 59.6°F15.3°C 54.1°F12.3°C 82% 3.9 mph ESE6.3 kmh ESE 9.0 mph14.5 kmh 29.74 in1007.1 mb 0.02 in0.5 mm 0.03 in0.8 mm 0.38 in9.7 mm
11:40 AM 60.3°F15.7°C 54.4°F12.4°C 81% 2.5 mph E4.0 kmh E 7.0 mph11.3 kmh 29.74 in1007.1 mb 0.00 in0.0 mm 0.00 in0.0 mm 0.36 in9.1 mm
11:20 AM 60.2°F15.7°C 54.3°F12.4°C 81% 4.7 mph NE7.6 kmh NE 9.0 mph14.5 kmh 29.74 in1007.1 mb 0.00 in0.0 mm 0.00 in0.0 mm 0.36 in9.1 mm
11:00 AM 60.0°F15.6°C 54.2°F12.3°C 81% 4.0 mph ENE6.4 kmh ENE 9.0 mph14.5 kmh 29.73 in1006.8 mb 0.00 in0.0 mm 0.00 in0.0 mm 0.36 in9.1 mm
10:40 AM 59.7°F15.4°C 54.2°F12.3°C 82% 3.3 mph NE5.3 kmh NE 10.0 mph16.1 kmh 29.73 in1006.8 mb 0.00 in0.0 mm 0.00 in0.0 mm 0.36 in9.1 mm
10:20 AM 59.4°F15.2°C 53.9°F12.2°C 82% 3.9 mph NE6.3 kmh NE 8.0 mph12.9 kmh 29.73 in1006.8 mb 0.00 in0.0 mm 0.00 in0.0 mm 0.36 in9.1 mm
10:00 AM 59.1°F15.1°C 54.3°F12.4°C 84% 3.7 mph NE6.0 kmh NE 9.0 mph14.5 kmh 29.73 in1006.8 mb 0.01 in0.3 mm 0.00 in0.0 mm 0.36 in9.1 mm
09:40 AM 58.1°F14.5°C 53.9°F12.2°C 86% 5.3 mph NE8.5 kmh NE 9.0 mph14.5 kmh 29.73 in1006.8 mb 0.02 in0.5 mm 0.00 in0.0 mm 0.36 in9.1 mm
09:20 AM 57.4°F14.1°C 53.6°F12.0°C 87% 7.5 mph NE12.1 kmh NE 13.0 mph20.9 kmh 29.74 in1007.1 mb 0.04 in1.0 mm 0.00 in0.0 mm 0.36 in9.1 mm
09:00 AM 57.3°F14.1°C 53.8°F12.1°C 88% 8.0 mph NNE12.9 kmh NNE 14.0 mph22.5 kmh 29.73 in1006.8 mb 0.09 in2.3 mm 0.00 in0.0 mm 0.35 in8.9 mm
08:40 AM 57.5°F14.2°C 54.0°F12.2°C 88% 6.0 mph N9.7 kmh N 12.0 mph19.3 kmh 29.73 in1006.8 mb 0.10 in2.5 mm 0.00 in0.0 mm 0.34 in8.6 mm
08:20 AM 57.5°F14.2°C 54.3°F12.4°C 89% 2.0 mph N3.2 kmh N 6.0 mph9.7 kmh 29.73 in1006.8 mb 0.13 in3.3 mm 0.00 in0.0 mm 0.32 in8.1 mm
08:00 AM 57.4°F14.1°C 54.2°F12.3°C 89% 2.4 mph NNE3.9 kmh NNE 3.0 mph4.8 kmh 29.73 in1006.8 mb 0.13 in3.3 mm 0.00 in0.0 mm 0.27 in6.9 mm
07:40 AM 57.2°F14.0°C 54.0°F12.2°C 89% 2.9 mph NNW4.7 kmh NNW 7.0 mph11.3 kmh 29.75 in1007.5 mb 0.15 in3.8 mm 0.00 in0.0 mm 0.24 in6.1 mm
07:20 AM 57.1°F13.9°C 53.9°F12.2°C 89% 8.3 mph NNW13.4 kmh NNW 14.0 mph22.5 kmh 29.72 in1006.4 mb 0.17 in4.3 mm 0.12 in3.0 mm 0.19 in4.8 mm
07:00 AM 57.5°F14.2°C 54.3°F12.4°C 89% 7.7 mph WNW12.4 kmh WNW 13.0 mph20.9 kmh 29.73 in1006.8 mb 0.13 in3.3 mm 0.06 in1.5 mm 0.13 in3.3 mm
06:40 AM 58.7°F14.8°C 54.5°F12.5°C 86% 6.5 mph WNW10.5 kmh WNW 17.0 mph27.4 kmh 29.71 in1006.1 mb 0.09 in2.3 mm 0.21 in5.3 mm 0.09 in2.3 mm
06:20 AM 61.3°F16.3°C 56.4°F13.6°C 84% 3.6 mph NW5.8 kmh NW 10.0 mph16.1 kmh 29.71 in1006.1 mb 0.02 in0.5 mm 0.06 in1.5 mm 0.02 in0.5 mm
06:00 AM 62.7°F17.1°C 59.1°F15.1°C 88% 3.7 mph NW6.0 kmh NW 10.0 mph16.1 kmh 29.71 in1006.1 mb 0.00 in0.0 mm 0.00 in0.0 mm 0.00 in0.0 mm
05:40 AM 63.2°F17.3°C 59.6°F15.3°C 88% 1.5 mph NW2.4 kmh NW 4.0 mph6.4 kmh 29.71 in1006.1 mb 0.00 in0.0 mm 0.00 in0.0 mm 0.00 in0.0 mm
05:20 AM 63.4°F17.4°C 59.8°F15.4°C 88% 1.0 mph SW1.6 kmh SW 4.0 mph6.4 kmh 29.71 in1006.1 mb 0.00 in0.0 mm 0.00 in0.0 mm 0.00 in0.0 mm
05:00 AM 63.5°F17.5°C 59.6°F15.3°C 87% 1.0 mph SW1.6 kmh SW 4.0 mph6.4 kmh 29.71 in1006.1 mb 0.00 in0.0 mm 0.00 in0.0 mm 0.00 in0.0 mm
04:40 AM 63.8°F17.7°C 59.9°F15.5°C 87% 1.4 mph SW2.3 kmh SW 6.0 mph9.7 kmh 29.72 in1006.4 mb 0.00 in0.0 mm 0.00 in0.0 mm 0.00 in0.0 mm
04:20 AM 64.1°F17.8°C 60.2°F15.7°C 87% 0.6 mph SW1.0 kmh SW 4.0 mph6.4 kmh 29.73 in1006.8 mb 0.00 in0.0 mm 0.00 in0.0 mm 0.00 in0.0 mm
04:00 AM 64.3°F17.9°C 60.3°F15.7°C 87% 0.8 mph SW1.3 kmh SW 5.0 mph8.0 kmh 29.74 in1007.1 mb 0.00 in0.0 mm 0.00 in0.0 mm 0.00 in0.0 mm
03:40 AM 64.6°F18.1°C 60.3°F15.7°C 86% 0.8 mph WSW1.3 kmh WSW 2.0 mph3.2 kmh 29.75 in1007.5 mb 0.00 in0.0 mm 0.00 in0.0 mm 0.00 in0.0 mm
03:20 AM 64.6°F18.1°C 60.3°F15.7°C 86% 1.0 mph SW1.6 kmh SW 2.0 mph3.2 kmh 29.76 in1007.8 mb 0.00 in0.0 mm 0.00 in0.0 mm 0.00 in0.0 mm
03:00 AM 64.5°F18.1°C 60.2°F15.7°C 86% 1.8 mph SSE2.9 kmh SSE 6.0 mph9.7 kmh 29.77 in1008.1 mb 0.00 in0.0 mm 0.00 in0.0 mm 0.00 in0.0 mm
02:40 AM 64.3°F17.9°C 60.3°F15.7°C 87% 1.0 mph SW1.6 kmh SW 3.0 mph4.8 kmh 29.78 in1008.5 mb 0.00 in0.0 mm 0.00 in0.0 mm 0.00 in0.0 mm
02:20 AM 64.3°F17.9°C 60.3°F15.7°C 87% 1.8 mph SW2.9 kmh SW 5.0 mph8.0 kmh 29.79 in1008.8 mb 0.00 in0.0 mm 0.00 in0.0 mm 0.00 in0.0 mm
02:00 AM 64.0°F17.8°C 60.1°F15.6°C 87% 1.0 mph SSW1.6 kmh SSW 5.0 mph8.0 kmh 29.80 in1009.1 mb 0.00 in0.0 mm 0.00 in0.0 mm 0.00 in0.0 mm
01:40 AM 64.0°F17.8°C 59.7°F15.4°C 86% 0.2 mph 0.3 kmh -- 29.81 in1009.5 mb 0.00 in0.0 mm 0.00 in0.0 mm 0.00 in0.0 mm
01:20 AM 64.5°F18.1°C 60.2°F15.7°C 86% 1.5 mph SSW2.4 kmh SSW 3.0 mph4.8 kmh 29.82 in1009.8 mb 0.00 in0.0 mm 0.00 in0.0 mm 0.00 in0.0 mm
01:00 AM 64.5°F18.1°C 60.2°F15.7°C 86% 3.0 mph SSW4.8 kmh SSW 6.0 mph9.7 kmh 29.82 in1009.8 mb 0.00 in0.0 mm 0.00 in0.0 mm 0.00 in0.0 mm
12:40 AM 64.6°F18.1°C 60.3°F15.7°C 86% 3.0 mph S4.8 kmh S 6.0 mph9.7 kmh 29.83 in1010.2 mb 0.00 in0.0 mm 0.00 in0.0 mm 0.00 in0.0 mm
12:20 AM 64.8°F18.2°C 60.2°F15.7°C 85% 2.0 mph S3.2 kmh S 7.0 mph11.3 kmh 29.84 in1010.5 mb 0.00 in0.0 mm 0.00 in0.0 mm 0.00 in0.0 mm
12:00 AM 65.0°F18.3°C 60.4°F15.8°C 85% 2.0 mph S3.2 kmh S 6.0 mph9.7 kmh 29.85 in1010.8 mb 0.00 in0.0 mm 0.00 in0.0 mm 0.00 in0.0 mm